Time;durP1;ratioP1;P1;durP2;ratioP2;P2;SDS_P1;SDS_P2;PMS_P1;PMS_P2;Temp;Humidity;BMP_temperature;BMP_pressure;BME280_temperature;BME280_humidity;BME280_pressure;Samples;Min_cycle;Max_cycle;Signal;HPM_P1;HPM_P2
2022/02/09 00:04:28;;;;;;;12.55;5.88;;;;;;;;;;10493330;28;20479;-74
2022/02/09 00:09:11;;;;;;;8.90;5.35;;;;;;;;;;10493345;28;20124;-75
2022/02/09 00:30:29;;;;;;;7.85;5.00;;;;;;;;;;10448531;28;20039;-74
2022/02/09 01:38:36;;;;;;;13.13;5.17;;;;;;;;;;10448535;28;20013;-78
2022/02/09 01:59:27;;;;;;;8.40;3.50;;;;;;;;;;10449799;28;20098;-77
2022/02/09 02:04:27;;;;;;;9.40;4.25;;;;;;;;;;10450443;28;20518;-77
2022/02/09 02:09:32;;;;;;;14.73;3.97;;;;;;;;;;10445774;28;20031;-76
2022/02/09 02:14:40;;;;;;;9.77;5.18;;;;;;;;;;10467565;28;20449;-78
2022/02/09 02:19:56;;;;;;;18.80;4.90;;;;;;;;;;10453156;28;20029;-76
2022/02/09 03:17:08;;;;;;;11.13;4.97;;;;;;;;;;10452614;28;20107;-76
2022/02/09 03:22:19;;;;;;;16.02;4.82;;;;;;;;;;10449714;28;20025;-77
2022/02/09 03:43:21;;;;;;;16.60;6.00;;;;;;;;;;10451292;28;20164;-76
2022/02/09 03:54:01;;;;;;;10.90;5.18;;;;;;;;;;10451420;28;20021;-77
2022/02/09 03:59:01;;;;;;;12.63;5.78;;;;;;;;;;10449840;28;20499;-75
2022/02/09 04:04:02;;;;;;;8.88;4.68;;;;;;;;;;10465529;28;20031;-75
2022/02/09 04:09:06;;;;;;;8.73;5.38;;;;;;;;;;10432904;28;20037;-79
2022/02/09 04:14:24;;;;;;;14.45;6.95;;;;;;;;;;10449492;28;20028;-76
2022/02/09 04:20:22;;;;;;;10.15;5.53;;;;;;;;;;10448549;28;20025;-78
2022/02/09 04:56:11;;;;;;;9.55;4.43;;;;;;;;;;10485935;28;20032;-78
2022/02/09 05:01:47;;;;;;;8.10;4.20;;;;;;;;;;10464661;28;20412;-77
2022/02/09 05:22:41;;;;;;;6.60;4.28;;;;;;;;;;10447176;28;20021;-75
2022/02/09 05:27:54;;;;;;;7.75;4.68;;;;;;;;;;10444718;28;20520;-74
2022/02/09 05:32:55;;;;;;;8.82;5.60;;;;;;;;;;10446106;28;20420;-75
2022/02/09 05:37:56;;;;;;;9.90;5.28;;;;;;;;;;10444272;28;20021;-74
2022/02/09 05:42:57;;;;;;;11.93;4.30;;;;;;;;;;10451100;28;20052;-74
2022/02/09 05:53:23;;;;;;;7.38;5.35;;;;;;;;;;10432903;28;20025;-77
2022/02/09 06:03:30;;;;;;;8.55;5.18;;;;;;;;;;10452956;28;20099;-80
2022/02/09 06:08:31;;;;;;;7.85;5.28;;;;;;;;;;10452906;28;20548;-75
2022/02/09 06:13:50;;;;;;;11.27;5.85;;;;;;;;;;10464548;28;20116;-76
2022/02/09 06:24:09;;;;;;;5.80;4.63;;;;;;;;;;10484602;28;20056;-81
2022/02/09 06:29:09;;;;;;;7.07;4.75;;;;;;;;;;10492328;28;20044;-79
2022/02/09 06:34:16;;;;;;;7.88;4.75;;;;;;;;;;10482211;28;20029;-76
2022/02/09 06:39:17;;;;;;;8.13;4.38;;;;;;;;;;10450918;28;20029;-78
2022/02/09 06:44:19;;;;;;;12.07;5.57;;;;;;;;;;10451890;28;20052;-74
2022/02/09 06:49:21;;;;;;;11.45;5.63;;;;;;;;;;10472913;28;20473;-74
2022/02/09 06:54:31;;;;;;;9.05;4.20;;;;;;;;;;10450159;28;20398;-75
2022/02/09 06:59:32;;;;;;;5.93;3.45;;;;;;;;;;10449880;28;20105;-73
2022/02/09 07:04:34;;;;;;;6.57;4.72;;;;;;;;;;10450572;28;20025;-76
2022/02/09 07:09:34;;;;;;;7.80;4.43;;;;;;;;;;10449648;28;20029;-79
2022/02/09 07:14:35;;;;;;;5.85;4.05;;;;;;;;;;10450957;28;20451;-75
2022/02/09 07:19:37;;;;;;;7.18;4.30;;;;;;;;;;10449172;28;20467;-74
2022/02/09 07:24:38;;;;;;;8.65;4.63;;;;;;;;;;10464516;28;20029;-74
2022/02/09 07:29:38;;;;;;;8.90;5.03;;;;;;;;;;10448510;28;20458;-75
2022/02/09 07:34:38;;;;;;;9.83;4.00;;;;;;;;;;10449915;28;20313;-74
2022/02/09 07:39:39;;;;;;;9.77;5.78;;;;;;;;;;10464477;28;20487;-76
2022/02/09 07:45:06;;;;;;;4.43;3.78;;;;;;;;;;10449584;28;20052;-75
2022/02/09 07:55:10;;;;;;;9.18;3.78;;;;;;;;;;10449560;28;20031;-75
2022/02/09 08:00:13;;;;;;;8.18;4.72;;;;;;;;;;10448800;28;20029;-75
2022/02/09 08:05:13;;;;;;;18.70;4.50;;;;;;;;;;10456026;28;20420;-75
2022/02/09 08:10:24;;;;;;;5.80;4.17;;;;;;;;;;10446240;28;20028;-74
2022/02/09 08:32:34;;;;;;;6.80;3.20;;;;;;;;;;10447742;28;19930;-74
2022/02/09 08:37:07;;;;;;;4.97;3.50;;;;;;;;;;10447635;28;20041;-78
2022/02/09 08:42:07;;;;;;;3.53;2.58;;;;;;;;;;10445745;28;20053;-75
2022/02/09 08:47:08;;;;;;;18.03;4.17;;;;;;;;;;10462680;28;20113;-75
2022/02/09 08:52:08;;;;;;;10.50;2.67;;;;;;;;;;10445796;28;20019;-78
2022/02/09 08:57:10;;;;;;;7.18;3.10;;;;;;;;;;10446137;28;20024;-75
2022/02/09 09:02:13;;;;;;;6.50;3.05;;;;;;;;;;10429114;28;20067;-73
2022/02/09 09:07:20;;;;;;;4.47;2.85;;;;;;;;;;10445541;28;20094;-76
2022/02/09 10:37:26;;;;;;;12.17;2.40;;;;;;;;;;10494134;28;20111;-80
2022/02/09 10:42:42;;;;;;;10.10;2.50;;;;;;;;;;10494714;28;20294;-76
2022/02/09 10:47:42;;;;;;;6.63;2.05;;;;;;;;;;10517273;28;20110;-79
2022/02/09 10:52:49;;;;;;;15.98;2.85;;;;;;;;;;10506494;28;20024;-76
2022/02/09 10:57:50;;;;;;;10.15;3.28;;;;;;;;;;10496785;28;20048;-75
2022/02/09 11:02:51;;;;;;;5.95;2.95;;;;;;;;;;10505334;28;20085;-75
2022/02/09 11:07:54;;;;;;;5.78;2.35;;;;;;;;;;10530890;28;20031;-75
2022/02/09 11:12:56;;;;;;;6.35;2.45;;;;;;;;;;10531095;28;20028;-75
2022/02/09 11:17:57;;;;;;;2.65;1.40;;;;;;;;;;10532767;28;20051;-81
2022/02/09 11:22:58;;;;;;;4.78;2.97;;;;;;;;;;10531042;28;20024;-78
2022/02/09 11:28:37;;;;;;;10.10;2.92;;;;;;;;;;10529724;28;20024;-75
2022/02/09 11:33:56;;;;;;;5.78;3.30;;;;;;;;;;10501516;28;20483;-76
2022/02/09 11:39:05;;;;;;;7.32;3.97;;;;;;;;;;10529772;28;20024;-77
2022/02/09 11:44:28;;;;;;;9.23;3.85;;;;;;;;;;10509175;28;20029;-76
2022/02/09 11:50:10;;;;;;;7.68;4.38;;;;;;;;;;10522754;28;20081;-72
2022/02/09 12:01:06;;;;;;;6.57;4.13;;;;;;;;;;10470181;28;20115;-77
2022/02/09 12:11:50;;;;;;;8.80;4.07;;;;;;;;;;10511224;28;20487;-76
2022/02/09 12:22:12;;;;;;;8.00;4.25;;;;;;;;;;10528935;28;20508;-77
2022/02/09 12:27:13;;;;;;;6.45;4.20;;;;;;;;;;10522179;28;20033;-75
2022/02/09 12:32:14;;;;;;;6.80;4.00;;;;;;;;;;10470093;28;20051;-75
2022/02/09 12:37:14;;;;;;;4.72;3.65;;;;;;;;;;10486992;28;20034;-75
2022/02/09 12:42:15;;;;;;;7.35;3.28;;;;;;;;;;10525962;28;20081;-76
2022/02/09 12:47:15;;;;;;;8.70;4.32;;;;;;;;;;10510717;28;20036;-80
2022/02/09 12:52:16;;;;;;;9.60;4.00;;;;;;;;;;10489269;28;20447;-80
2022/02/09 12:57:16;;;;;;;6.03;3.90;;;;;;;;;;10516906;28;20119;-77
2022/02/09 13:02:17;;;;;;;8.45;4.03;;;;;;;;;;10504734;28;20038;-78
2022/02/09 13:07:18;;;;;;;5.33;4.13;;;;;;;;;;10527357;28;20016;-75
2022/02/09 13:12:25;;;;;;;4.57;3.50;;;;;;;;;;10523095;28;20016;-80
2022/02/09 13:17:53;;;;;;;6.87;5.10;;;;;;;;;;10528607;28;20085;-82
2022/02/09 14:57:40;;;;;;;15.43;8.40;;;;;;;;;;10495006;28;20060;-82
2022/02/09 15:08:17;;;;;;;17.75;9.32;;;;;;;;;;10534664;28;20470;-82
2022/02/09 15:13:32;;;;;;;13.93;8.27;;;;;;;;;;10533375;28;20024;-76
2022/02/09 15:23:41;;;;;;;14.30;9.07;;;;;;;;;;10530285;28;20103;-76
2022/02/09 15:28:42;;;;;;;14.80;9.00;;;;;;;;;;10531622;28;20023;-76
2022/02/09 15:33:46;;;;;;;13.57;8.07;;;;;;;;;;10531351;28;20020;-75
2022/02/09 15:38:47;;;;;;;12.02;7.50;;;;;;;;;;10531307;28;20428;-75
2022/02/09 16:10:35;;;;;;;;;;;;;;;;;;10491516;28;20017;-77
2022/02/09 16:26:04;;;;;;;13.02;7.40;;;;;;;;;;10493898;28;20028;-80
2022/02/09 16:47:03;;;;;;;13.43;7.65;;;;;;;;;;10488023;28;20032;-77
2022/02/09 16:52:12;;;;;;;15.38;7.75;;;;;;;;;;10487434;28;20025;-77
2022/02/09 17:08:30;;;;;;;12.18;7.80;;;;;;;;;;10531377;28;20031;-80
2022/02/09 17:23:37;;;;;;;11.82;7.63;;;;;;;;;;10524636;28;20027;-82
2022/02/09 17:28:38;;;;;;;14.77;8.18;;;;;;;;;;10530543;28;20028;-77
2022/02/09 17:39:02;;;;;;;14.07;7.63;;;;;;;;;;10496195;28;20036;-75
2022/02/09 17:59:55;;;;;;;11.13;6.65;;;;;;;;;;10534387;28;20028;-75
2022/02/09 18:04:55;;;;;;;16.35;8.98;;;;;;;;;;10535179;28;20024;-75
2022/02/09 18:10:05;;;;;;;11.15;7.90;;;;;;;;;;10528213;28;20024;-75
2022/02/09 18:31:12;;;;;;;15.18;7.97;;;;;;;;;;10493573;28;20023;-78
2022/02/09 19:03:32;;;;;;;19.80;9.07;;;;;;;;;;10463116;28;20027;-76
2022/02/09 19:30:07;;;;;;;14.95;7.72;;;;;;;;;;10532403;28;20411;-79
2022/02/09 19:51:09;;;;;;;10.98;6.60;;;;;;;;;;10532473;28;20036;-80
2022/02/09 19:56:17;;;;;;;12.33;6.73;;;;;;;;;;10531155;28;20058;-75
2022/02/09 20:01:19;;;;;;;;;;;;;;;;;;10512524;28;20123;-77
2022/02/09 20:06:19;;;;;;;13.23;6.85;;;;;;;;;;10487537;28;19951;-75
2022/02/09 20:11:20;;;;;;;13.40;6.97;;;;;;;;;;10489732;28;20103;-77
2022/02/09 20:16:22;;;;;;;13.93;7.43;;;;;;;;;;10489934;28;20047;-79
2022/02/09 20:21:25;;;;;;;11.32;7.28;;;;;;;;;;10493556;28;20074;-79
2022/02/09 20:26:31;;;;;;;13.93;6.45;;;;;;;;;;10489610;28;20385;-78
2022/02/09 20:31:41;;;;;;;10.33;6.90;;;;;;;;;;10500164;28;20016;-77
2022/02/09 20:36:43;;;;;;;9.68;7.25;;;;;;;;;;10529805;28;20149;-77
2022/02/09 20:41:44;;;;;;;11.65;6.97;;;;;;;;;;10530353;28;20097;-76
2022/02/09 20:46:45;;;;;;;13.63;6.75;;;;;;;;;;10529628;28;20020;-74
2022/02/09 20:51:45;;;;;;;11.25;7.65;;;;;;;;;;10530214;28;20016;-78
2022/02/09 20:56:45;;;;;;;10.33;7.37;;;;;;;;;;10529881;28;20426;-76
2022/02/09 21:07:10;;;;;;;13.77;8.40;;;;;;;;;;10530795;28;20103;-80
2022/02/09 21:12:41;;;;;;;13.32;8.10;;;;;;;;;;10529290;28;20403;-79
2022/02/09 21:33:40;;;;;;;13.40;8.40;;;;;;;;;;10530570;28;20210;-74
2022/02/09 21:59:59;;;;;;;14.93;9.30;;;;;;;;;;10487958;28;20025;-77
2022/02/09 22:26:38;;;;;;;17.17;9.88;;;;;;;;;;10488101;28;20020;-78
2022/02/09 22:58:13;;;;;;;16.08;9.52;;;;;;;;;;10495230;28;20107;-75
2022/02/09 23:03:19;;;;;;;17.63;10.40;;;;;;;;;;10493347;28;20033;-76
